Tillatoba, Mississippi
Current Conditions -  °F | °C
As of 12:15 PM on Thursday 30 Oct 2014 (Local Time) from KGNF Reporting Station
Clear Clear  
Wind Chill: 66°   Ceiling: Unl
Heat Index: 66°   Visibility: 10mi
Dew Point: 32°   Wind: 0mph
Humidity: 28%   Direction: NA
Pressure: 30.15"   Gusts: NA
Location:  33.98°N, 89.9°W
Report Text: KGNF 301715Z AUTO 00000KT 10SM CLR 19/00 A3015 RMK AO2
Loading
Personal Weather Stations






























Interactive Weather Map
Tropical Storm Tracking
New forecast layout! Learn more

10-Day Weather Forecast

Advertisements
Track Severe Weather on mobile